Accueil
METAR-TAF:

METAR-TAF

Aéroports :

Gifu, Japon

latitude: 35-23N, longitude: 136-52E, altitude: 39 m

Observation

Le bulletin a été fait il y a 4 heures et 27 minutes, à 13:35 UTC
Vent 6 kt de nord/nord-ouest
Température 8°C
Humidité 53%
Pression 1026 hPa
Visibilité 10 km ou plus
Quelques nuages à une hauteur de 2500 ft
Nuages fragmentés à une hauteur de 18000 ft
Nuages fragmentés

METAR: RJNG 241335Z 34006KT 9999 FEW025 BKN180 BKN/// 08/M01 Q1026 RMK 1CU025 5AC180 A3032

Heure: 03:02 (18:02 UTC)


TAF: absent

Observations et prévisions météorologiques de plus de 4000 aéroports (messages METAR et TAF).

Les stations disponibles sont représentées par des disques jaunes et rouges sur la carte.

Passer la souris dessus pour voir le nom de la station.

Cliquer dessus pour voir les observations et prévisions météorologiques.

Pour changer de carte: cliquez sur les boutons verts avec une croix noire pour zoomer, sur le bouton vert avec un tiret pour effectuer un zoom arrière, ou sur les flèches vertes pour les cartes adjacentes.


METAR-TAF: